sensor_id;sensor_type;location;lat;lon;timestamp;P1;durP1;ratioP1;P2;durP2;ratioP2
10801;SDS011;5453;50.852;7.102;2023-08-06T00:02:18;2.75;;;1.77;;
10801;SDS011;5453;50.852;7.102;2023-08-06T00:04:51;3.35;;;1.90;;
10801;SDS011;5453;50.852;7.102;2023-08-06T00:07:23;2.67;;;1.85;;
10801;SDS011;5453;50.852;7.102;2023-08-06T00:09:55;4.30;;;1.95;;
10801;SDS011;5453;50.852;7.102;2023-08-06T00:12:32;3.78;;;1.92;;
10801;SDS011;5453;50.852;7.102;2023-08-06T00:15:05;2.53;;;1.98;;
10801;SDS011;5453;50.852;7.102;2023-08-06T00:17:38;3.20;;;1.83;;
10801;SDS011;5453;50.852;7.102;2023-08-06T00:20:11;3.88;;;2.05;;
10801;SDS011;5453;50.852;7.102;2023-08-06T00:22:43;4.05;;;2.05;;
10801;SDS011;5453;50.852;7.102;2023-08-06T00:25:15;2.95;;;1.70;;
10801;SDS011;5453;50.852;7.102;2023-08-06T00:27:49;3.30;;;2.03;;
10801;SDS011;5453;50.852;7.102;2023-08-06T00:30:22;4.30;;;1.80;;
10801;SDS011;5453;50.852;7.102;2023-08-06T00:32:57;2.92;;;1.77;;
10801;SDS011;5453;50.852;7.102;2023-08-06T00:35:30;3.00;;;1.85;;
10801;SDS011;5453;50.852;7.102;2023-08-06T00:38:02;3.63;;;2.10;;
10801;SDS011;5453;50.852;7.102;2023-08-06T00:40:37;3.00;;;2.03;;
10801;SDS011;5453;50.852;7.102;2023-08-06T00:43:11;3.85;;;2.00;;
10801;SDS011;5453;50.852;7.102;2023-08-06T00:45:44;3.05;;;1.73;;
10801;SDS011;5453;50.852;7.102;2023-08-06T00:48:16;2.92;;;1.90;;
10801;SDS011;5453;50.852;7.102;2023-08-06T00:50:49;3.30;;;1.75;;
10801;SDS011;5453;50.852;7.102;2023-08-06T00:53:22;4.43;;;1.88;;
10801;SDS011;5453;50.852;7.102;2023-08-06T00:55:54;3.47;;;2.22;;
10801;SDS011;5453;50.852;7.102;2023-08-06T00:58:28;3.30;;;1.88;;
10801;SDS011;5453;50.852;7.102;2023-08-06T01:01:01;3.85;;;1.90;;
10801;SDS011;5453;50.852;7.102;2023-08-06T01:03:33;4.63;;;2.42;;
10801;SDS011;5453;50.852;7.102;2023-08-06T01:06:06;4.88;;;2.35;;
10801;SDS011;5453;50.852;7.102;2023-08-06T01:08:41;4.00;;;1.90;;
10801;SDS011;5453;50.852;7.102;2023-08-06T01:11:22;4.28;;;2.28;;
10801;SDS011;5453;50.852;7.102;2023-08-06T01:14:05;3.70;;;2.10;;
10801;SDS011;5453;50.852;7.102;2023-08-06T01:16:53;4.55;;;2.40;;
10801;SDS011;5453;50.852;7.102;2023-08-06T01:19:27;2.50;;;1.85;;
10801;SDS011;5453;50.852;7.102;2023-08-06T01:22:01;6.05;;;2.53;;
10801;SDS011;5453;50.852;7.102;2023-08-06T01:24:36;3.17;;;1.95;;
10801;SDS011;5453;50.852;7.102;2023-08-06T01:27:11;4.78;;;2.10;;
10801;SDS011;5453;50.852;7.102;2023-08-06T01:29:54;4.18;;;2.53;;
10801;SDS011;5453;50.852;7.102;2023-08-06T01:32:35;4.75;;;2.20;;
10801;SDS011;5453;50.852;7.102;2023-08-06T01:35:11;4.00;;;2.05;;
10801;SDS011;5453;50.852;7.102;2023-08-06T01:37:47;3.45;;;2.28;;
10801;SDS011;5453;50.852;7.102;2023-08-06T01:40:20;2.67;;;1.90;;
10801;SDS011;5453;50.852;7.102;2023-08-06T01:42:55;3.42;;;2.20;;
10801;SDS011;5453;50.852;7.102;2023-08-06T01:45:27;3.40;;;2.13;;
10801;SDS011;5453;50.852;7.102;2023-08-06T01:48:00;3.60;;;2.00;;
10801;SDS011;5453;50.852;7.102;2023-08-06T01:50:32;4.53;;;2.30;;
10801;SDS011;5453;50.852;7.102;2023-08-06T01:53:09;3.28;;;1.92;;
10801;SDS011;5453;50.852;7.102;2023-08-06T01:55:42;2.90;;;1.90;;
10801;SDS011;5453;50.852;7.102;2023-08-06T01:58:19;2.55;;;1.92;;
10801;SDS011;5453;50.852;7.102;2023-08-06T02:00:54;3.30;;;1.70;;
10801;SDS011;5453;50.852;7.102;2023-08-06T02:03:28;4.57;;;2.13;;
10801;SDS011;5453;50.852;7.102;2023-08-06T02:06:00;3.92;;;2.00;;
10801;SDS011;5453;50.852;7.102;2023-08-06T02:08:35;3.85;;;1.90;;
10801;SDS011;5453;50.852;7.102;2023-08-06T02:11:07;2.65;;;1.77;;
10801;SDS011;5453;50.852;7.102;2023-08-06T02:13:40;3.35;;;1.85;;
10801;SDS011;5453;50.852;7.102;2023-08-06T02:16:12;2.47;;;1.73;;
10801;SDS011;5453;50.852;7.102;2023-08-06T02:18:47;2.97;;;1.60;;
10801;SDS011;5453;50.852;7.102;2023-08-06T02:21:20;2.65;;;1.88;;
10801;SDS011;5453;50.852;7.102;2023-08-06T02:23:53;4.50;;;2.08;;
10801;SDS011;5453;50.852;7.102;2023-08-06T02:26:26;3.25;;;1.73;;
10801;SDS011;5453;50.852;7.102;2023-08-06T02:29:03;3.53;;;2.05;;
10801;SDS011;5453;50.852;7.102;2023-08-06T02:31:35;3.03;;;1.52;;
10801;SDS011;5453;50.852;7.102;2023-08-06T02:34:10;3.40;;;1.77;;
10801;SDS011;5453;50.852;7.102;2023-08-06T02:36:42;5.22;;;1.88;;
10801;SDS011;5453;50.852;7.102;2023-08-06T02:39:16;3.53;;;1.80;;
10801;SDS011;5453;50.852;7.102;2023-08-06T02:41:48;2.25;;;1.90;;
10801;SDS011;5453;50.852;7.102;2023-08-06T02:44:21;3.55;;;1.83;;
10801;SDS011;5453;50.852;7.102;2023-08-06T02:46:56;3.00;;;1.73;;
10801;SDS011;5453;50.852;7.102;2023-08-06T02:49:29;4.07;;;2.30;;
10801;SDS011;5453;50.852;7.102;2023-08-06T02:52:02;4.00;;;1.98;;
10801;SDS011;5453;50.852;7.102;2023-08-06T02:54:36;2.80;;;2.05;;
10801;SDS011;5453;50.852;7.102;2023-08-06T02:57:12;3.97;;;2.17;;
10801;SDS011;5453;50.852;7.102;2023-08-06T02:59:44;2.55;;;2.03;;
10801;SDS011;5453;50.852;7.102;2023-08-06T03:02:22;4.30;;;2.10;;
10801;SDS011;5453;50.852;7.102;2023-08-06T03:05:04;2.90;;;1.77;;
10801;SDS011;5453;50.852;7.102;2023-08-06T03:07:40;4.38;;;1.88;;
10801;SDS011;5453;50.852;7.102;2023-08-06T03:10:20;3.83;;;1.98;;
10801;SDS011;5453;50.852;7.102;2023-08-06T03:12:58;4.20;;;2.10;;
10801;SDS011;5453;50.852;7.102;2023-08-06T03:15:32;4.03;;;2.10;;
10801;SDS011;5453;50.852;7.102;2023-08-06T03:18:06;5.25;;;2.00;;
10801;SDS011;5453;50.852;7.102;2023-08-06T03:20:38;3.35;;;2.00;;
10801;SDS011;5453;50.852;7.102;2023-08-06T03:23:11;2.92;;;1.90;;
10801;SDS011;5453;50.852;7.102;2023-08-06T03:25:46;10.38;;;2.35;;
10801;SDS011;5453;50.852;7.102;2023-08-06T03:28:19;4.10;;;2.10;;
10801;SDS011;5453;50.852;7.102;2023-08-06T03:30:58;4.90;;;2.28;;
10801;SDS011;5453;50.852;7.102;2023-08-06T03:33:35;7.07;;;2.38;;
10801;SDS011;5453;50.852;7.102;2023-08-06T03:36:11;3.47;;;2.15;;
10801;SDS011;5453;50.852;7.102;2023-08-06T03:38:45;5.60;;;2.13;;
10801;SDS011;5453;50.852;7.102;2023-08-06T03:41:20;5.10;;;2.10;;
10801;SDS011;5453;50.852;7.102;2023-08-06T03:43:53;3.85;;;1.88;;
10801;SDS011;5453;50.852;7.102;2023-08-06T03:46:29;3.88;;;2.08;;
10801;SDS011;5453;50.852;7.102;2023-08-06T03:49:04;3.75;;;2.05;;
10801;SDS011;5453;50.852;7.102;2023-08-06T03:51:37;4.25;;;2.55;;
10801;SDS011;5453;50.852;7.102;2023-08-06T03:54:09;3.65;;;2.00;;
10801;SDS011;5453;50.852;7.102;2023-08-06T03:56:43;3.60;;;1.85;;
10801;SDS011;5453;50.852;7.102;2023-08-06T03:59:15;3.22;;;1.75;;
10801;SDS011;5453;50.852;7.102;2023-08-06T04:01:50;5.22;;;2.10;;
10801;SDS011;5453;50.852;7.102;2023-08-06T04:04:22;2.95;;;1.80;;
10801;SDS011;5453;50.852;7.102;2023-08-06T04:06:55;4.72;;;1.92;;
10801;SDS011;5453;50.852;7.102;2023-08-06T04:09:28;2.88;;;1.75;;
10801;SDS011;5453;50.852;7.102;2023-08-06T04:12:02;4.40;;;1.85;;
10801;SDS011;5453;50.852;7.102;2023-08-06T04:14:35;2.90;;;1.83;;
10801;SDS011;5453;50.852;7.102;2023-08-06T04:17:07;7.03;;;2.40;;
10801;SDS011;5453;50.852;7.102;2023-08-06T04:19:40;3.53;;;2.08;;
10801;SDS011;5453;50.852;7.102;2023-08-06T04:22:13;3.80;;;1.80;;
10801;SDS011;5453;50.852;7.102;2023-08-06T04:24:46;4.40;;;1.83;;
10801;SDS011;5453;50.852;7.102;2023-08-06T04:27:23;4.32;;;1.83;;
10801;SDS011;5453;50.852;7.102;2023-08-06T04:29:56;3.30;;;1.58;;
10801;SDS011;5453;50.852;7.102;2023-08-06T04:32:30;4.53;;;1.73;;
10801;SDS011;5453;50.852;7.102;2023-08-06T04:35:02;3.95;;;1.70;;
10801;SDS011;5453;50.852;7.102;2023-08-06T04:37:35;2.22;;;1.45;;
10801;SDS011;5453;50.852;7.102;2023-08-06T04:40:08;3.15;;;1.50;;
10801;SDS011;5453;50.852;7.102;2023-08-06T04:42:43;3.45;;;1.95;;
10801;SDS011;5453;50.852;7.102;2023-08-06T04:45:15;3.38;;;1.52;;
10801;SDS011;5453;50.852;7.102;2023-08-06T04:47:48;3.28;;;1.73;;
10801;SDS011;5453;50.852;7.102;2023-08-06T04:50:20;3.03;;;1.60;;
10801;SDS011;5453;50.852;7.102;2023-08-06T04:52:53;4.50;;;2.47;;
10801;SDS011;5453;50.852;7.102;2023-08-06T04:55:25;2.92;;;1.73;;
10801;SDS011;5453;50.852;7.102;2023-08-06T04:57:59;3.80;;;1.58;;
10801;SDS011;5453;50.852;7.102;2023-08-06T05:00:31;2.90;;;1.60;;
10801;SDS011;5453;50.852;7.102;2023-08-06T05:03:05;2.08;;;1.52;;
10801;SDS011;5453;50.852;7.102;2023-08-06T05:05:39;2.58;;;1.63;;
10801;SDS011;5453;50.852;7.102;2023-08-06T05:08:14;4.68;;;1.90;;
10801;SDS011;5453;50.852;7.102;2023-08-06T05:10:47;3.45;;;1.80;;
10801;SDS011;5453;50.852;7.102;2023-08-06T05:13:24;2.28;;;1.45;;
10801;SDS011;5453;50.852;7.102;2023-08-06T05:15:57;3.15;;;1.67;;
10801;SDS011;5453;50.852;7.102;2023-08-06T05:18:29;2.55;;;1.48;;
10801;SDS011;5453;50.852;7.102;2023-08-06T05:21:02;3.33;;;1.27;;
10801;SDS011;5453;50.852;7.102;2023-08-06T05:23:34;2.30;;;1.40;;
10801;SDS011;5453;50.852;7.102;2023-08-06T05:26:06;3.47;;;1.70;;
10801;SDS011;5453;50.852;7.102;2023-08-06T05:28:40;4.25;;;1.60;;
10801;SDS011;5453;50.852;7.102;2023-08-06T05:31:12;1.65;;;1.33;;
10801;SDS011;5453;50.852;7.102;2023-08-06T05:33:45;2.15;;;1.33;;
10801;SDS011;5453;50.852;7.102;2023-08-06T05:36:17;2.92;;;1.45;;
10801;SDS011;5453;50.852;7.102;2023-08-06T05:38:50;2.65;;;1.60;;
10801;SDS011;5453;50.852;7.102;2023-08-06T05:41:22;2.33;;;1.42;;
10801;SDS011;5453;50.852;7.102;2023-08-06T05:43:56;3.40;;;1.40;;
10801;SDS011;5453;50.852;7.102;2023-08-06T05:46:28;2.88;;;1.23;;
10801;SDS011;5453;50.852;7.102;2023-08-06T05:49:00;2.75;;;1.60;;
10801;SDS011;5453;50.852;7.102;2023-08-06T05:51:37;2.67;;;1.90;;
10801;SDS011;5453;50.852;7.102;2023-08-06T05:54:09;2.47;;;1.40;;
10801;SDS011;5453;50.852;7.102;2023-08-06T05:56:41;1.90;;;1.40;;
10801;SDS011;5453;50.852;7.102;2023-08-06T05:59:15;1.63;;;1.30;;
10801;SDS011;5453;50.852;7.102;2023-08-06T06:01:48;2.60;;;1.33;;
10801;SDS011;5453;50.852;7.102;2023-08-06T06:04:20;2.88;;;1.40;;
10801;SDS011;5453;50.852;7.102;2023-08-06T06:06:52;2.67;;;1.10;;
10801;SDS011;5453;50.852;7.102;2023-08-06T06:09:25;2.15;;;1.48;;
10801;SDS011;5453;50.852;7.102;2023-08-06T06:11:57;2.20;;;1.42;;
10801;SDS011;5453;50.852;7.102;2023-08-06T06:14:31;3.33;;;1.80;;
10801;SDS011;5453;50.852;7.102;2023-08-06T06:17:04;1.33;;;0.93;;
10801;SDS011;5453;50.852;7.102;2023-08-06T06:19:36;3.00;;;1.42;;
10801;SDS011;5453;50.852;7.102;2023-08-06T06:22:08;1.67;;;1.13;;
10801;SDS011;5453;50.852;7.102;2023-08-06T06:24:41;2.00;;;1.30;;
10801;SDS011;5453;50.852;7.102;2023-08-06T06:27:13;1.15;;;0.95;;
10801;SDS011;5453;50.852;7.102;2023-08-06T06:29:47;1.40;;;0.82;;
10801;SDS011;5453;50.852;7.102;2023-08-06T06:32:19;1.48;;;1.00;;
10801;SDS011;5453;50.852;7.102;2023-08-06T06:34:52;2.95;;;1.10;;
10801;SDS011;5453;50.852;7.102;2023-08-06T06:37:25;1.25;;;1.00;;
10801;SDS011;5453;50.852;7.102;2023-08-06T06:39:57;1.05;;;0.77;;
10801;SDS011;5453;50.852;7.102;2023-08-06T06:42:29;1.10;;;0.93;;
10801;SDS011;5453;50.852;7.102;2023-08-06T06:45:07;1.95;;;0.82;;
10801;SDS011;5453;50.852;7.102;2023-08-06T06:47:41;1.63;;;0.98;;
10801;SDS011;5453;50.852;7.102;2023-08-06T06:50:13;1.13;;;0.73;;
10801;SDS011;5453;50.852;7.102;2023-08-06T06:52:45;1.63;;;0.68;;
10801;SDS011;5453;50.852;7.102;2023-08-06T06:55:18;1.40;;;0.68;;
10801;SDS011;5453;50.852;7.102;2023-08-06T06:57:50;0.80;;;0.63;;
10801;SDS011;5453;50.852;7.102;2023-08-06T07:00:24;1.20;;;0.70;;
10801;SDS011;5453;50.852;7.102;2023-08-06T07:02:56;0.80;;;0.63;;
10801;SDS011;5453;50.852;7.102;2023-08-06T07:05:29;1.30;;;0.77;;
10801;SDS011;5453;50.852;7.102;2023-08-06T07:08:01;1.13;;;1.00;;
10801;SDS011;5453;50.852;7.102;2023-08-06T07:10:33;1.02;;;0.75;;
10801;SDS011;5453;50.852;7.102;2023-08-06T07:13:06;1.02;;;0.80;;
10801;SDS011;5453;50.852;7.102;2023-08-06T07:15:39;1.02;;;0.77;;
10801;SDS011;5453;50.852;7.102;2023-08-06T07:18:12;1.83;;;0.90;;
10801;SDS011;5453;50.852;7.102;2023-08-06T07:20:47;1.95;;;0.90;;
10801;SDS011;5453;50.852;7.102;2023-08-06T07:23:26;1.05;;;0.80;;
10801;SDS011;5453;50.852;7.102;2023-08-06T07:25:59;1.58;;;1.00;;
10801;SDS011;5453;50.852;7.102;2023-08-06T07:28:31;2.28;;;0.93;;
10801;SDS011;5453;50.852;7.102;2023-08-06T07:31:05;2.72;;;0.93;;
10801;SDS011;5453;50.852;7.102;2023-08-06T07:33:40;2.45;;;1.13;;
10801;SDS011;5453;50.852;7.102;2023-08-06T07:36:13;1.25;;;1.10;;
10801;SDS011;5453;50.852;7.102;2023-08-06T07:38:46;1.60;;;1.08;;
10801;SDS011;5453;50.852;7.102;2023-08-06T07:41:21;2.67;;;1.00;;
10801;SDS011;5453;50.852;7.102;2023-08-06T07:43:54;1.92;;;1.13;;
10801;SDS011;5453;50.852;7.102;2023-08-06T07:46:27;1.30;;;1.02;;
10801;SDS011;5453;50.852;7.102;2023-08-06T07:49:00;1.35;;;1.25;;
10801;SDS011;5453;50.852;7.102;2023-08-06T07:51:36;1.40;;;1.30;;
10801;SDS011;5453;50.852;7.102;2023-08-06T07:54:08;2.65;;;1.52;;
10801;SDS011;5453;50.852;7.102;2023-08-06T07:56:40;1.70;;;1.30;;
10801;SDS011;5453;50.852;7.102;2023-08-06T07:59:13;2.47;;;1.33;;
10801;SDS011;5453;50.852;7.102;2023-08-06T08:01:49;2.30;;;1.40;;
10801;SDS011;5453;50.852;7.102;2023-08-06T08:04:23;1.83;;;1.63;;
10801;SDS011;5453;50.852;7.102;2023-08-06T08:06:55;2.83;;;1.55;;
10801;SDS011;5453;50.852;7.102;2023-08-06T08:09:28;1.90;;;1.55;;
10801;SDS011;5453;50.852;7.102;2023-08-06T08:12:00;2.15;;;1.50;;
10801;SDS011;5453;50.852;7.102;2023-08-06T08:14:33;1.70;;;1.60;;
10801;SDS011;5453;50.852;7.102;2023-08-06T08:17:07;2.50;;;1.45;;
10801;SDS011;5453;50.852;7.102;2023-08-06T08:19:40;1.77;;;1.60;;
10801;SDS011;5453;50.852;7.102;2023-08-06T08:22:12;3.85;;;1.70;;
10801;SDS011;5453;50.852;7.102;2023-08-06T08:24:44;2.50;;;1.80;;
10801;SDS011;5453;50.852;7.102;2023-08-06T08:27:17;2.33;;;1.50;;
10801;SDS011;5453;50.852;7.102;2023-08-06T08:29:55;1.40;;;1.30;;
10801;SDS011;5453;50.852;7.102;2023-08-06T08:32:29;1.60;;;1.48;;
10801;SDS011;5453;50.852;7.102;2023-08-06T08:35:02;2.33;;;1.85;;
10801;SDS011;5453;50.852;7.102;2023-08-06T08:37:38;1.98;;;1.48;;
10801;SDS011;5453;50.852;7.102;2023-08-06T08:40:10;2.30;;;1.60;;
10801;SDS011;5453;50.852;7.102;2023-08-06T08:42:43;1.88;;;1.33;;
10801;SDS011;5453;50.852;7.102;2023-08-06T08:45:15;1.48;;;1.23;;
10801;SDS011;5453;50.852;7.102;2023-08-06T08:47:56;1.80;;;1.40;;
10801;SDS011;5453;50.852;7.102;2023-08-06T08:50:29;3.25;;;1.35;;
10801;SDS011;5453;50.852;7.102;2023-08-06T08:53:01;2.55;;;1.50;;
10801;SDS011;5453;50.852;7.102;2023-08-06T08:55:34;3.00;;;1.30;;
10801;SDS011;5453;50.852;7.102;2023-08-06T08:58:07;1.60;;;1.30;;
10801;SDS011;5453;50.852;7.102;2023-08-06T09:00:39;2.83;;;1.50;;
10801;SDS011;5453;50.852;7.102;2023-08-06T09:03:15;7.40;;;2.38;;
10801;SDS011;5453;50.852;7.102;2023-08-06T09:05:49;3.42;;;2.00;;
10801;SDS011;5453;50.852;7.102;2023-08-06T09:08:27;1.77;;;1.52;;
10801;SDS011;5453;50.852;7.102;2023-08-06T09:13:40;21.88;;;6.88;;
10801;SDS011;5453;50.852;7.102;2023-08-06T09:16:13;17.42;;;6.20;;
10801;SDS011;5453;50.852;7.102;2023-08-06T09:18:47;21.05;;;7.32;;
10801;SDS011;5453;50.852;7.102;2023-08-06T09:21:19;19.67;;;5.80;;
10801;SDS011;5453;50.852;7.102;2023-08-06T09:23:55;11.57;;;4.68;;
10801;SDS011;5453;50.852;7.102;2023-08-06T09:26:32;16.75;;;5.65;;
10801;SDS011;5453;50.852;7.102;2023-08-06T09:29:05;23.38;;;7.35;;
10801;SDS011;5453;50.852;7.102;2023-08-06T09:31:41;20.20;;;6.68;;
10801;SDS011;5453;50.852;7.102;2023-08-06T09:34:16;19.52;;;6.32;;
10801;SDS011;5453;50.852;7.102;2023-08-06T09:36:52;14.68;;;4.85;;
10801;SDS011;5453;50.852;7.102;2023-08-06T09:39:26;11.57;;;3.65;;
10801;SDS011;5453;50.852;7.102;2023-08-06T09:42:03;6.93;;;2.58;;
10801;SDS011;5453;50.852;7.102;2023-08-06T09:44:35;5.50;;;2.33;;
10801;SDS011;5453;50.852;7.102;2023-08-06T09:47:09;3.35;;;1.88;;
10801;SDS011;5453;50.852;7.102;2023-08-06T09:49:43;2.60;;;1.42;;
10801;SDS011;5453;50.852;7.102;2023-08-06T09:52:16;4.57;;;1.70;;
10801;SDS011;5453;50.852;7.102;2023-08-06T09:54:48;3.67;;;1.52;;
10801;SDS011;5453;50.852;7.102;2023-08-06T09:57:22;2.28;;;1.30;;
10801;SDS011;5453;50.852;7.102;2023-08-06T09:59:56;1.73;;;1.05;;
10801;SDS011;5453;50.852;7.102;2023-08-06T10:02:28;1.52;;;0.98;;
10801;SDS011;5453;50.852;7.102;2023-08-06T10:05:02;1.23;;;0.93;;
10801;SDS011;5453;50.852;7.102;2023-08-06T10:07:36;1.17;;;1.08;;
10801;SDS011;5453;50.852;7.102;2023-08-06T10:10:10;1.88;;;1.30;;
10801;SDS011;5453;50.852;7.102;2023-08-06T10:12:43;1.85;;;1.50;;
10801;SDS011;5453;50.852;7.102;2023-08-06T10:15:21;2.42;;;1.58;;
10801;SDS011;5453;50.852;7.102;2023-08-06T10:17:57;2.22;;;1.88;;
10801;SDS011;5453;50.852;7.102;2023-08-06T10:20:34;3.80;;;1.95;;
10801;SDS011;5453;50.852;7.102;2023-08-06T10:23:06;3.78;;;1.60;;
10801;SDS011;5453;50.852;7.102;2023-08-06T10:25:40;2.92;;;1.92;;
10801;SDS011;5453;50.852;7.102;2023-08-06T10:28:13;2.25;;;1.73;;
10801;SDS011;5453;50.852;7.102;2023-08-06T10:30:48;1.55;;;1.42;;
10801;SDS011;5453;50.852;7.102;2023-08-06T10:33:21;2.00;;;0.88;;
10801;SDS011;5453;50.852;7.102;2023-08-06T10:35:54;2.05;;;0.60;;
10801;SDS011;5453;50.852;7.102;2023-08-06T10:38:43;0.40;;;0.40;;
10801;SDS011;5453;50.852;7.102;2023-08-06T10:41:21;0.40;;;0.40;;
10801;SDS011;5453;50.852;7.102;2023-08-06T10:44:05;0.60;;;0.40;;
10801;SDS011;5453;50.852;7.102;2023-08-06T10:46:38;2.08;;;0.90;;
10801;SDS011;5453;50.852;7.102;2023-08-06T10:49:11;2.70;;;0.80;;
10801;SDS011;5453;50.852;7.102;2023-08-06T10:51:47;1.08;;;0.73;;
10801;SDS011;5453;50.852;7.102;2023-08-06T10:54:19;1.38;;;1.02;;
10801;SDS011;5453;50.852;7.102;2023-08-06T10:56:51;1.15;;;0.70;;
10801;SDS011;5453;50.852;7.102;2023-08-06T10:59:24;3.05;;;1.13;;
10801;SDS011;5453;50.852;7.102;2023-08-06T11:01:59;0.98;;;0.93;;
10801;SDS011;5453;50.852;7.102;2023-08-06T11:04:33;2.15;;;1.10;;
10801;SDS011;5453;50.852;7.102;2023-08-06T11:07:07;2.08;;;1.30;;
10801;SDS011;5453;50.852;7.102;2023-08-06T11:09:41;1.20;;;0.90;;
10801;SDS011;5453;50.852;7.102;2023-08-06T11:12:17;1.25;;;1.00;;
10801;SDS011;5453;50.852;7.102;2023-08-06T11:14:50;1.83;;;0.93;;
10801;SDS011;5453;50.852;7.102;2023-08-06T11:17:22;3.22;;;1.08;;
10801;SDS011;5453;50.852;7.102;2023-08-06T11:19:56;1.10;;;1.00;;
10801;SDS011;5453;50.852;7.102;2023-08-06T11:22:32;2.30;;;1.35;;
10801;SDS011;5453;50.852;7.102;2023-08-06T11:25:05;1.92;;;1.00;;
10801;SDS011;5453;50.852;7.102;2023-08-06T11:27:39;1.50;;;0.93;;
10801;SDS011;5453;50.852;7.102;2023-08-06T11:30:14;2.67;;;0.90;;
10801;SDS011;5453;50.852;7.102;2023-08-06T11:32:47;2.47;;;1.20;;
10801;SDS011;5453;50.852;7.102;2023-08-06T11:35:20;1.52;;;0.93;;
10801;SDS011;5453;50.852;7.102;2023-08-06T11:37:53;3.92;;;1.50;;
10801;SDS011;5453;50.852;7.102;2023-08-06T11:40:26;2.22;;;1.17;;
10801;SDS011;5453;50.852;7.102;2023-08-06T11:42:58;4.57;;;1.17;;
10801;SDS011;5453;50.852;7.102;2023-08-06T11:45:31;1.80;;;1.17;;
10801;SDS011;5453;50.852;7.102;2023-08-06T11:48:06;1.05;;;0.80;;
10801;SDS011;5453;50.852;7.102;2023-08-06T11:50:39;2.55;;;1.10;;
10801;SDS011;5453;50.852;7.102;2023-08-06T11:53:13;2.65;;;0.93;;
10801;SDS011;5453;50.852;7.102;2023-08-06T11:55:46;2.65;;;0.82;;
10801;SDS011;5453;50.852;7.102;2023-08-06T11:58:19;3.72;;;0.98;;
10801;SDS011;5453;50.852;7.102;2023-08-06T12:00:51;2.40;;;1.15;;
10801;SDS011;5453;50.852;7.102;2023-08-06T12:03:26;2.22;;;1.13;;
10801;SDS011;5453;50.852;7.102;2023-08-06T12:06:00;2.28;;;1.10;;
10801;SDS011;5453;50.852;7.102;2023-08-06T12:08:34;2.53;;;1.10;;
10801;SDS011;5453;50.852;7.102;2023-08-06T12:11:08;3.88;;;1.33;;
10801;SDS011;5453;50.852;7.102;2023-08-06T12:13:40;2.25;;;1.00;;
10801;SDS011;5453;50.852;7.102;2023-08-06T12:16:13;2.15;;;0.95;;
10801;SDS011;5453;50.852;7.102;2023-08-06T12:21:20;1.17;;;1.08;;
10801;SDS011;5453;50.852;7.102;2023-08-06T12:23:54;1.77;;;1.13;;
10801;SDS011;5453;50.852;7.102;2023-08-06T12:26:26;2.30;;;1.23;;
10801;SDS011;5453;50.852;7.102;2023-08-06T12:28:58;3.10;;;1.35;;
10801;SDS011;5453;50.852;7.102;2023-08-06T12:31:30;2.35;;;1.27;;
10801;SDS011;5453;50.852;7.102;2023-08-06T12:34:06;1.42;;;1.25;;
10801;SDS011;5453;50.852;7.102;2023-08-06T12:36:38;2.53;;;1.38;;
10801;SDS011;5453;50.852;7.102;2023-08-06T12:39:12;3.20;;;1.17;;
10801;SDS011;5453;50.852;7.102;2023-08-06T12:41:44;3.17;;;1.02;;
10801;SDS011;5453;50.852;7.102;2023-08-06T12:44:17;2.63;;;1.13;;
10801;SDS011;5453;50.852;7.102;2023-08-06T12:46:49;5.05;;;1.17;;
10801;SDS011;5453;50.852;7.102;2023-08-06T12:49:22;4.70;;;1.75;;
10801;SDS011;5453;50.852;7.102;2023-08-06T12:51:56;6.22;;;1.30;;
10801;SDS011;5453;50.852;7.102;2023-08-06T12:54:31;4.20;;;1.35;;
10801;SDS011;5453;50.852;7.102;2023-08-06T12:57:06;2.00;;;1.10;;
10801;SDS011;5453;50.852;7.102;2023-08-06T12:59:39;1.48;;;1.23;;
10801;SDS011;5453;50.852;7.102;2023-08-06T13:02:14;3.78;;;1.50;;
10801;SDS011;5453;50.852;7.102;2023-08-06T13:04:47;3.00;;;1.00;;
10801;SDS011;5453;50.852;7.102;2023-08-06T13:07:19;2.42;;;1.35;;
10801;SDS011;5453;50.852;7.102;2023-08-06T13:09:53;2.33;;;1.40;;
10801;SDS011;5453;50.852;7.102;2023-08-06T13:12:28;1.77;;;1.13;;
10801;SDS011;5453;50.852;7.102;2023-08-06T13:15:01;2.60;;;1.00;;
10801;SDS011;5453;50.852;7.102;2023-08-06T13:17:33;4.15;;;1.42;;
10801;SDS011;5453;50.852;7.102;2023-08-06T13:20:06;1.73;;;1.10;;
10801;SDS011;5453;50.852;7.102;2023-08-06T13:22:39;1.45;;;1.08;;
10801;SDS011;5453;50.852;7.102;2023-08-06T13:25:13;5.65;;;1.40;;
10801;SDS011;5453;50.852;7.102;2023-08-06T13:27:47;2.58;;;1.20;;
10801;SDS011;5453;50.852;7.102;2023-08-06T13:30:19;3.92;;;1.30;;
10801;SDS011;5453;50.852;7.102;2023-08-06T13:32:53;2.65;;;1.15;;
10801;SDS011;5453;50.852;7.102;2023-08-06T13:35:26;1.60;;;1.10;;
10801;SDS011;5453;50.852;7.102;2023-08-06T13:37:59;1.85;;;1.40;;
10801;SDS011;5453;50.852;7.102;2023-08-06T13:40:35;3.63;;;1.10;;
10801;SDS011;5453;50.852;7.102;2023-08-06T13:43:07;2.92;;;1.60;;
10801;SDS011;5453;50.852;7.102;2023-08-06T13:45:39;2.50;;;1.38;;
10801;SDS011;5453;50.852;7.102;2023-08-06T13:48:12;3.83;;;1.40;;
10801;SDS011;5453;50.852;7.102;2023-08-06T13:50:44;3.83;;;1.60;;
10801;SDS011;5453;50.852;7.102;2023-08-06T13:53:17;1.73;;;1.63;;
10801;SDS011;5453;50.852;7.102;2023-08-06T13:55:50;4.30;;;1.55;;
10801;SDS011;5453;50.852;7.102;2023-08-06T13:58:26;5.20;;;1.90;;
10801;SDS011;5453;50.852;7.102;2023-08-06T14:00:58;3.15;;;1.90;;
10801;SDS011;5453;50.852;7.102;2023-08-06T14:03:31;4.55;;;2.25;;
10801;SDS011;5453;50.852;7.102;2023-08-06T14:06:03;4.90;;;2.00;;
10801;SDS011;5453;50.852;7.102;2023-08-06T14:08:35;3.40;;;1.83;;
10801;SDS011;5453;50.852;7.102;2023-08-06T14:11:09;4.07;;;1.90;;
10801;SDS011;5453;50.852;7.102;2023-08-06T14:13:42;3.65;;;2.30;;
10801;SDS011;5453;50.852;7.102;2023-08-06T14:16:14;3.47;;;1.85;;
10801;SDS011;5453;50.852;7.102;2023-08-06T14:18:47;8.85;;;2.63;;
10801;SDS011;5453;50.852;7.102;2023-08-06T14:21:20;2.17;;;1.70;;
10801;SDS011;5453;50.852;7.102;2023-08-06T14:23:52;2.20;;;1.60;;
10801;SDS011;5453;50.852;7.102;2023-08-06T14:26:26;3.15;;;1.60;;
10801;SDS011;5453;50.852;7.102;2023-08-06T14:28:58;2.53;;;1.42;;
10801;SDS011;5453;50.852;7.102;2023-08-06T14:31:31;1.88;;;1.08;;
10801;SDS011;5453;50.852;7.102;2023-08-06T14:34:04;2.10;;;1.13;;
10801;SDS011;5453;50.852;7.102;2023-08-06T14:36:36;3.45;;;0.98;;
10801;SDS011;5453;50.852;7.102;2023-08-06T14:39:09;3.92;;;1.00;;
10801;SDS011;5453;50.852;7.102;2023-08-06T14:41:42;2.35;;;0.98;;
10801;SDS011;5453;50.852;7.102;2023-08-06T14:44:18;1.67;;;0.88;;
10801;SDS011;5453;50.852;7.102;2023-08-06T14:46:50;3.20;;;1.00;;
10801;SDS011;5453;50.852;7.102;2023-08-06T14:49:23;1.15;;;0.93;;
10801;SDS011;5453;50.852;7.102;2023-08-06T14:51:55;2.97;;;1.13;;
10801;SDS011;5453;50.852;7.102;2023-08-06T14:54:29;2.03;;;1.10;;
10801;SDS011;5453;50.852;7.102;2023-08-06T14:57:03;3.38;;;1.00;;
10801;SDS011;5453;50.852;7.102;2023-08-06T14:59:37;2.92;;;1.17;;
10801;SDS011;5453;50.852;7.102;2023-08-06T15:02:10;1.70;;;1.10;;
10801;SDS011;5453;50.852;7.102;2023-08-06T15:04:42;1.55;;;0.70;;
10801;SDS011;5453;50.852;7.102;2023-08-06T15:07:15;2.55;;;1.00;;
10801;SDS011;5453;50.852;7.102;2023-08-06T15:09:47;2.42;;;1.20;;
10801;SDS011;5453;50.852;7.102;2023-08-06T15:12:24;2.60;;;1.60;;
10801;SDS011;5453;50.852;7.102;2023-08-06T15:14:57;1.20;;;1.10;;
10801;SDS011;5453;50.852;7.102;2023-08-06T15:17:30;2.25;;;1.10;;
10801;SDS011;5453;50.852;7.102;2023-08-06T15:20:03;2.55;;;0.80;;
10801;SDS011;5453;50.852;7.102;2023-08-06T15:22:37;0.73;;;0.73;;
10801;SDS011;5453;50.852;7.102;2023-08-06T15:25:09;1.73;;;0.85;;
10801;SDS011;5453;50.852;7.102;2023-08-06T15:27:43;1.20;;;0.65;;
10801;SDS011;5453;50.852;7.102;2023-08-06T15:30:15;1.90;;;1.08;;
10801;SDS011;5453;50.852;7.102;2023-08-06T15:32:47;1.25;;;0.80;;
10801;SDS011;5453;50.852;7.102;2023-08-06T15:35:20;1.15;;;0.70;;
10801;SDS011;5453;50.852;7.102;2023-08-06T15:37:52;1.23;;;0.60;;
10801;SDS011;5453;50.852;7.102;2023-08-06T15:40:28;0.40;;;0.40;;
10801;SDS011;5453;50.852;7.102;2023-08-06T15:43:01;0.82;;;0.52;;
10801;SDS011;5453;50.852;7.102;2023-08-06T15:45:34;1.27;;;0.82;;